Avilla, Missouri
Current Conditions -  °F | °C
As of 6:16 PM on Sunday 23 Nov 2014 (Local Time) from KJLN Reporting Station
Light Rain Light Rain  
Wind Chill: 13°   Ceiling: 3000
Heat Index: 13°   Visibility: 4mi
Dew Point: 13°   Wind: 9mph
Humidity: 97%   Direction: 310°NW
Pressure: 29.31"   Gusts: NA
Location:  37.2°N, 94.13°W
Report Text: KJLN 240016Z 31008KT 4SM -RA BR BKN030 BKN047 OVC065 13/13 A2931 RMK AO2 LTG DSNT ALQDS P0002 T01330128
Loading
Personal Weather Stations






























Interactive Weather Map New forecast layout! Learn more

10-Day Weather Forecast

Advertisements
Track Severe Weather on mobile